createdAt,value
2022-08-07T00:01:44.133Z,67.82
2022-08-07T00:04:17.283Z,67.75
2022-08-07T00:06:52.824Z,67.88
2022-08-07T00:09:22.509Z,67.62
2022-08-07T00:11:55.660Z,67.93
2022-08-07T00:14:31.468Z,67.91
2022-08-07T00:17:01.803Z,67.94
2022-08-07T00:20:00.259Z,67.83
2022-08-07T00:22:34.523Z,67.87
2022-08-07T00:25:05.386Z,67.56
2022-08-07T00:27:35.889Z,67.47
2022-08-07T00:30:26.349Z,67.82
2022-08-07T00:32:56.609Z,67.60
2022-08-07T00:35:29.656Z,67.60
2022-08-07T00:37:59.656Z,67.66
2022-08-07T00:40:39.815Z,67.40
2022-08-07T00:44:00.446Z,67.43
2022-08-07T00:46:03.760Z,67.89
2022-08-07T00:48:32.647Z,67.85
2022-08-07T00:51:03.914Z,67.93
2022-08-07T00:53:38.888Z,67.43
2022-08-07T00:56:19.009Z,67.67
2022-08-07T00:58:49.580Z,68.01
2022-08-07T01:01:21.473Z,68.04
2022-08-07T01:04:24.555Z,68.17
2022-08-07T01:06:56.158Z,67.73
2022-08-07T01:10:05.201Z,67.49
2022-08-07T01:12:29.649Z,67.80
2022-08-07T01:15:00.864Z,67.86
2022-08-07T01:17:31.100Z,68.03
2022-08-07T01:20:05.607Z,67.78
2022-08-07T01:22:37.274Z,68.16
2022-08-07T01:25:54.787Z,68.35
2022-08-07T01:28:06.238Z,68.25
2022-08-07T01:30:42.727Z,68.29
2022-08-07T01:33:12.176Z,67.90
2022-08-07T01:35:53.152Z,68.00
2022-08-07T01:38:25.994Z,68.35
2022-08-07T01:41:03.946Z,68.54
2022-08-07T01:43:34.791Z,68.64
2022-08-07T01:46:12.276Z,68.26
2022-08-07T01:48:46.677Z,68.55
2022-08-07T01:52:03.459Z,68.29
2022-08-07T01:54:36.872Z,68.07
2022-08-07T01:57:24.334Z,68.46
2022-08-07T01:59:57.626Z,68.86
2022-08-07T02:03:11.942Z,68.59
2022-08-07T02:05:43.029Z,68.05
2022-08-07T02:08:23.827Z,68.04
2022-08-07T02:10:58.640Z,68.10
2022-08-07T02:13:57.163Z,68.22
2022-08-07T02:16:29.918Z,67.82
2022-08-07T02:19:05.689Z,68.11
2022-08-07T02:21:58.887Z,68.94
2022-08-07T02:24:30.147Z,68.52
2022-08-07T02:27:02.630Z,68.77
2022-08-07T02:29:43.416Z,68.66
2022-08-07T02:32:23.158Z,68.60
2022-08-07T02:34:53.438Z,68.87
2022-08-07T02:37:27.800Z,68.84
2022-08-07T02:40:29.967Z,68.72
2022-08-07T02:42:59.796Z,68.84
2022-08-07T02:46:00.937Z,68.64
2022-08-07T02:48:20.529Z,68.71
2022-08-07T02:50:53.082Z,69.00
2022-08-07T02:53:27.374Z,69.36
2022-08-07T02:56:03.032Z,69.29
2022-08-07T02:58:39.887Z,69.50
2022-08-07T03:01:19.119Z,69.57
2022-08-07T03:04:12.850Z,69.23
2022-08-07T03:06:44.566Z,68.80
2022-08-07T03:09:41.879Z,68.63
2022-08-07T03:12:05.330Z,68.46
2022-08-07T03:14:39.753Z,68.45
2022-08-07T03:17:11.342Z,68.18
2022-08-07T03:19:41.287Z,68.94
2022-08-07T03:22:19.015Z,69.53
2022-08-07T03:24:49.260Z,69.57
2022-08-07T03:27:30.045Z,69.43
2022-08-07T03:30:05.602Z,70.26
2022-08-07T03:32:40.186Z,69.85
2022-08-07T03:35:26.054Z,70.19
2022-08-07T03:37:58.639Z,70.49
2022-08-07T03:40:36.201Z,70.72
2022-08-07T03:43:13.657Z,70.57
2022-08-07T03:45:48.469Z,70.93
2022-08-07T03:48:21.995Z,70.85
2022-08-07T03:50:55.758Z,70.45
2022-08-07T03:53:50.122Z,70.93
2022-08-07T03:56:32.754Z,70.83
2022-08-07T03:59:13.094Z,70.99
2022-08-07T04:01:48.068Z,70.75
2022-08-07T04:04:21.325Z,70.72
2022-08-07T04:06:54.544Z,70.39
2022-08-07T04:09:29.498Z,70.58
2022-08-07T04:12:24.220Z,70.82
2022-08-07T04:14:59.487Z,70.72
2022-08-07T04:18:31.293Z,70.86
2022-08-07T04:20:25.548Z,70.69
2022-08-07T04:23:01.746Z,70.61
2022-08-07T04:25:35.834Z,70.57
2022-08-07T04:28:08.473Z,70.65
2022-08-07T04:30:43.723Z,70.80
2022-08-07T04:33:30.712Z,70.38
2022-08-07T04:36:00.352Z,70.86
2022-08-07T04:38:34.676Z,70.39
2022-08-07T04:41:03.776Z,70.03
2022-08-07T04:44:12.083Z,69.61
2022-08-07T04:47:04.202Z,69.70
2022-08-07T04:49:57.962Z,70.21
2022-08-07T04:52:46.840Z,69.62
2022-08-07T04:58:16.446Z,69.78
2022-08-07T04:58:33.676Z,69.19
2022-08-07T05:01:18.032Z,68.47
2022-08-07T05:04:06.393Z,68.36
2022-08-07T05:06:51.267Z,68.98
2022-08-07T05:09:45.844Z,68.94
2022-08-07T05:12:26.984Z,68.96
2022-08-07T05:15:21.627Z,68.83
2022-08-07T05:18:00.819Z,68.92
2022-08-07T05:20:43.812Z,68.64
2022-08-07T05:23:23.183Z,68.35
2022-08-07T05:26:15.745Z,67.97
2022-08-07T05:28:53.852Z,67.82
2022-08-07T05:31:34.807Z,67.60
2022-08-07T05:34:10.955Z,67.74
2022-08-07T05:36:44.326Z,67.88
2022-08-07T05:40:13.567Z,67.90
2022-08-07T05:42:34.384Z,67.92
2022-08-07T05:45:26.196Z,67.21
2022-08-07T05:48:06.498Z,67.15
2022-08-07T05:50:45.506Z,66.83
2022-08-07T05:54:12.779Z,67.32
2022-08-07T05:56:10.474Z,67.23
2022-08-07T05:58:52.423Z,66.63
2022-08-07T06:01:27.456Z,66.65
2022-08-07T06:04:06.388Z,66.62
2022-08-07T06:06:46.259Z,66.20
2022-08-07T06:09:18.185Z,65.33
2022-08-07T06:11:51.202Z,66.13
2022-08-07T06:14:28.563Z,65.43
2022-08-07T06:17:07.334Z,65.92
2022-08-07T06:19:52.334Z,65.39
2022-08-07T06:22:35.591Z,65.03
2022-08-07T06:25:21.418Z,64.66
2022-08-07T06:28:01.599Z,65.47
2022-08-07T06:30:37.350Z,64.77
2022-08-07T06:33:17.495Z,64.30
2022-08-07T06:36:12.815Z,64.06
2022-08-07T06:38:51.352Z,63.58
2022-08-07T06:42:02.566Z,63.54
2022-08-07T06:44:26.016Z,63.79
2022-08-07T06:47:10.189Z,62.30
2022-08-07T06:49:52.261Z,62.67
2022-08-07T06:52:35.819Z,62.20
2022-08-07T06:55:33.270Z,62.55
2022-08-07T06:58:04.285Z,62.69
2022-08-07T07:00:42.594Z,61.83
2022-08-07T07:03:14.304Z,62.13
2022-08-07T07:06:02.839Z,60.33
2022-08-07T07:08:33.220Z,61.88
2022-08-07T07:11:13.958Z,60.37
2022-08-07T07:13:58.695Z,60.80
2022-08-07T07:16:45.146Z,59.57
2022-08-07T07:19:56.892Z,59.57
2022-08-07T07:22:35.661Z,58.77
2022-08-07T07:25:02.810Z,58.81
2022-08-07T07:27:56.385Z,59.15
2022-08-07T07:30:38.415Z,55.91
2022-08-07T07:33:14.081Z,55.97
2022-08-07T07:36:05.623Z,54.99
2022-08-07T07:38:36.014Z,55.34
2022-08-07T07:41:08.897Z,54.50
2022-08-07T07:44:14.330Z,55.74
2022-08-07T07:46:53.179Z,56.82
2022-08-07T07:50:34.217Z,55.50
2022-08-07T07:52:15.862Z,55.26
2022-08-07T07:54:51.494Z,56.54
2022-08-07T07:57:50.489Z,56.22
2022-08-07T08:00:29.159Z,56.17
2022-08-07T08:03:05.617Z,55.78
2022-08-07T08:05:54.230Z,55.34
2022-08-07T08:08:34.815Z,56.11
2022-08-07T08:11:07.968Z,55.21
2022-08-07T08:13:53.233Z,55.18
2022-08-07T08:16:29.901Z,54.87
2022-08-07T08:20:17.400Z,55.41
2022-08-07T08:22:33.049Z,55.38
2022-08-07T08:25:26.943Z,55.88
2022-08-07T08:28:16.928Z,54.85
2022-08-07T08:30:56.842Z,55.58
2022-08-07T08:33:28.993Z,54.82
2022-08-07T08:36:02.860Z,54.79
2022-08-07T08:38:41.223Z,55.30
2022-08-07T08:41:16.825Z,54.28
2022-08-07T08:43:58.796Z,53.45
2022-08-07T08:46:38.496Z,53.05
2022-08-07T08:49:17.766Z,52.20
2022-08-07T08:52:13.434Z,52.24
2022-08-07T08:54:48.682Z,50.92
2022-08-07T08:57:33.955Z,51.55
2022-08-07T09:00:04.265Z,50.60
2022-08-07T09:02:41.908Z,50.37
2022-08-07T09:05:36.699Z,49.12
2022-08-07T09:08:28.911Z,48.87
2022-08-07T09:11:08.260Z,49.55
2022-08-07T09:13:44.523Z,47.65
2022-08-07T09:16:29.792Z,47.34
2022-08-07T09:19:51.867Z,47.14
2022-08-07T09:24:27.174Z,46.63
2022-08-07T09:25:17.997Z,45.71
2022-08-07T09:28:02.881Z,46.55
2022-08-07T09:30:44.249Z,45.45
2022-08-07T09:33:40.922Z,45.92
2022-08-07T09:36:27.081Z,44.55
2022-08-07T09:39:18.168Z,44.69
2022-08-07T09:42:07.613Z,44.28
2022-08-07T09:47:26.146Z,43.42
2022-08-07T09:48:01.347Z,43.89
2022-08-07T09:50:37.652Z,44.36
2022-08-07T09:53:14.594Z,45.05
2022-08-07T09:56:05.436Z,45.07
2022-08-07T09:59:07.717Z,44.54
2022-08-07T10:02:06.289Z,44.13
2022-08-07T10:05:12.477Z,43.00
2022-08-07T10:07:52.573Z,43.39
2022-08-07T10:11:00.272Z,44.78
2022-08-07T10:14:00.861Z,44.40
2022-08-07T10:16:52.308Z,43.13
2022-08-07T10:19:38.382Z,44.47
2022-08-07T10:22:33.615Z,43.31
2022-08-07T10:25:22.658Z,42.33
2022-08-07T10:28:24.401Z,41.41
2022-08-07T10:31:11.337Z,41.71
2022-08-07T10:34:17.864Z,41.45
2022-08-07T10:37:10.218Z,43.30
2022-08-07T10:40:06.007Z,42.38
2022-08-07T10:42:42.451Z,40.69
2022-08-07T10:45:44.020Z,40.80
2022-08-07T10:48:24.513Z,40.11
2022-08-07T10:51:16.887Z,39.20
2022-08-07T10:54:08.123Z,39.43
2022-08-07T10:56:47.527Z,38.92
2022-08-07T10:59:30.398Z,38.78
2022-08-07T11:02:33.429Z,38.86
2022-08-07T11:05:35.699Z,38.25
2022-08-07T11:08:30.263Z,39.54
2022-08-07T11:11:04.987Z,38.49
2022-08-07T11:14:45.607Z,38.91
2022-08-07T11:16:30.659Z,38.80
2022-08-07T11:19:06.821Z,38.25
2022-08-07T11:21:43.491Z,39.44
2022-08-07T11:24:17.528Z,38.72
2022-08-07T11:26:55.036Z,39.39
2022-08-07T11:29:41.883Z,37.94
2022-08-07T11:32:25.732Z,38.94
2022-08-07T11:34:58.849Z,37.22
2022-08-07T11:37:57.360Z,37.53
2022-08-07T11:40:52.495Z,36.61
2022-08-07T11:43:29.342Z,38.38
2022-08-07T11:46:16.970Z,37.23
2022-08-07T11:49:51.299Z,35.99
2022-08-07T11:52:06.439Z,36.73
2022-08-07T11:54:54.996Z,36.72
2022-08-07T11:57:59.506Z,37.44
2022-08-07T12:00:34.030Z,38.13
2022-08-07T12:03:46.531Z,37.46
2022-08-07T12:06:37.950Z,37.89
2022-08-07T12:09:23.331Z,37.72
2022-08-07T12:12:10.710Z,37.91
2022-08-07T12:14:56.445Z,36.99
2022-08-07T12:17:39.960Z,37.27
2022-08-07T12:20:32.342Z,38.71
2022-08-07T12:23:17.969Z,38.07
2022-08-07T12:26:23.181Z,38.03
2022-08-07T12:29:04.541Z,37.33
2022-08-07T12:32:01.768Z,35.88
2022-08-07T12:34:36.043Z,38.73
2022-08-07T12:37:08.075Z,37.12
2022-08-07T12:39:42.351Z,36.65
2022-08-07T12:42:13.700Z,37.35
2022-08-07T12:44:46.232Z,36.68
2022-08-07T12:47:27.090Z,37.31
2022-08-07T12:50:39.261Z,35.72
2022-08-07T12:53:05.238Z,35.56
2022-08-07T12:56:03.414Z,35.60
2022-08-07T12:58:39.475Z,34.45
2022-08-07T13:01:18.512Z,36.00
2022-08-07T13:04:02.976Z,36.13
2022-08-07T13:07:17.940Z,36.74
2022-08-07T13:10:38.240Z,37.12
2022-08-07T13:13:48.559Z,36.69
2022-08-07T13:16:13.233Z,35.63
2022-08-07T13:18:50.611Z,37.05
2022-08-07T13:21:37.674Z,36.77
2022-08-07T13:24:19.716Z,36.49
2022-08-07T13:27:08.416Z,38.00
2022-08-07T13:29:46.983Z,36.18
2022-08-07T13:32:32.230Z,37.09
2022-08-07T13:35:09.307Z,36.09
2022-08-07T13:37:55.473Z,36.18
2022-08-07T13:40:36.372Z,37.12
2022-08-07T13:43:21.572Z,37.07
2022-08-07T13:46:11.800Z,35.22
2022-08-07T13:48:58.590Z,36.13
2022-08-07T13:52:23.112Z,36.24
2022-08-07T13:54:22.634Z,36.75
2022-08-07T13:56:59.871Z,36.02
2022-08-07T13:59:33.160Z,36.27
2022-08-07T14:02:08.628Z,37.17
2022-08-07T14:04:50.265Z,36.17
2022-08-07T14:07:25.056Z,36.31
2022-08-07T14:10:02.546Z,36.27
2022-08-07T14:12:54.703Z,35.24
2022-08-07T14:15:35.043Z,36.08
2022-08-07T14:18:23.754Z,35.20
2022-08-07T14:21:20.692Z,35.29
2022-08-07T14:24:02.185Z,35.10
2022-08-07T14:26:34.437Z,34.80
2022-08-07T14:30:05.870Z,35.36
2022-08-07T14:32:01.374Z,35.45
2022-08-07T14:34:31.996Z,35.85
2022-08-07T14:37:03.216Z,35.73
2022-08-07T14:40:17.120Z,35.75
2022-08-07T14:42:31.219Z,35.75
2022-08-07T14:45:21.996Z,36.31
2022-08-07T14:50:46.168Z,36.46
2022-08-07T14:53:15.679Z,37.00
2022-08-07T14:56:06.155Z,36.87
2022-08-07T14:58:38.462Z,37.05
2022-08-07T15:01:22.570Z,36.71
2022-08-07T15:03:54.579Z,36.62
2022-08-07T15:06:25.879Z,37.38
2022-08-07T15:08:55.993Z,36.15
2022-08-07T15:11:54.371Z,36.58
2022-08-07T15:14:21.263Z,37.61
2022-08-07T15:20:30.703Z,37.67
2022-08-07T15:25:39.704Z,37.15
2022-08-07T15:33:01.327Z,36.97
2022-08-07T15:38:51.980Z,37.26
2022-08-07T15:42:43.668Z,37.96
2022-08-07T15:44:24.116Z,38.31
2022-08-07T15:47:19.628Z,37.71
2022-08-07T15:50:05.931Z,38.44
2022-08-07T15:52:39.021Z,38.58
2022-08-07T15:55:12.120Z,38.80
2022-08-07T15:57:49.022Z,37.65
2022-08-07T16:00:31.238Z,37.38
2022-08-07T16:03:05.783Z,37.01
2022-08-07T16:05:36.045Z,37.54
2022-08-07T16:08:33.333Z,38.56
2022-08-07T16:11:04.031Z,37.68
2022-08-07T16:13:59.010Z,38.12
2022-08-07T16:16:48.817Z,37.44
2022-08-07T16:19:42.748Z,37.67
2022-08-07T16:22:55.382Z,38.81
2022-08-07T16:25:56.151Z,37.57
2022-08-07T16:30:06.345Z,37.40
2022-08-07T16:31:50.934Z,38.50
2022-08-07T16:34:37.955Z,37.78
2022-08-07T16:38:03.392Z,37.69
2022-08-07T16:40:32.087Z,38.43
2022-08-07T16:43:12.133Z,39.34
2022-08-07T16:46:47.506Z,38.92
2022-08-07T16:50:20.119Z,39.25
2022-08-07T16:52:50.531Z,39.18
2022-08-07T16:55:18.818Z,39.03
2022-08-07T16:58:02.231Z,39.75
2022-08-07T17:00:42.120Z,39.32
2022-08-07T17:03:18.793Z,39.42
2022-08-07T17:06:19.542Z,39.65
2022-08-07T17:09:09.150Z,39.58
2022-08-07T17:12:01.429Z,39.89
2022-08-07T17:14:44.915Z,40.22
2022-08-07T17:17:43.997Z,40.45
2022-08-07T17:20:29.688Z,40.65
2022-08-07T17:23:16.769Z,40.67
2022-08-07T17:26:04.606Z,41.73
2022-08-07T17:29:04.758Z,42.95
2022-08-07T17:32:02.469Z,43.46
2022-08-07T17:35:33.070Z,43.82
2022-08-07T17:38:05.589Z,44.11
2022-08-07T17:40:32.949Z,44.50
2022-08-07T17:43:18.107Z,44.98
2022-08-07T17:45:56.602Z,45.16
2022-08-07T17:49:26.001Z,46.12
2022-08-07T17:52:00.692Z,46.72
2022-08-07T17:54:53.813Z,46.92
2022-08-07T17:57:58.597Z,47.91
2022-08-07T18:00:49.378Z,48.46
2022-08-07T18:03:25.613Z,47.60
2022-08-07T18:06:38.279Z,47.83
2022-08-07T18:10:05.674Z,48.69
2022-08-07T18:13:42.373Z,48.53
2022-08-07T18:21:09.409Z,48.62
2022-08-07T18:23:57.440Z,49.05
2022-08-07T18:30:52.782Z,49.35
2022-08-07T18:33:58.912Z,49.75
2022-08-07T18:36:53.782Z,49.94
2022-08-07T18:40:06.709Z,50.22
2022-08-07T18:42:54.170Z,50.79
2022-08-07T18:50:35.071Z,50.75
2022-08-07T18:53:06.464Z,50.72
2022-08-07T18:56:08.413Z,50.88
2022-08-07T19:03:15.917Z,51.56
2022-08-07T19:06:02.653Z,51.84
2022-08-07T19:08:52.178Z,51.57
2022-08-07T19:11:36.356Z,51.69
2022-08-07T19:14:56.127Z,52.12
2022-08-07T19:18:02.647Z,52.00
2022-08-07T19:21:08.678Z,52.16
2022-08-07T19:24:33.351Z,52.78
2022-08-07T19:28:58.377Z,52.41
2022-08-07T19:31:02.941Z,52.61
2022-08-07T19:33:58.000Z,53.22
2022-08-07T19:36:58.006Z,52.63
2022-08-07T19:40:01.614Z,52.18
2022-08-07T19:42:42.664Z,52.82
2022-08-07T19:46:04.734Z,52.14
2022-08-07T19:48:18.415Z,52.20
2022-08-07T19:50:53.041Z,52.49
2022-08-07T19:54:30.889Z,53.08
2022-08-07T19:57:52.108Z,53.87
2022-08-07T19:59:44.205Z,53.62
2022-08-07T20:02:19.560Z,54.18
2022-08-07T20:05:00.422Z,54.38
2022-08-07T20:07:46.919Z,54.62
2022-08-07T20:10:36.151Z,54.65
2022-08-07T20:13:23.854Z,54.79
2022-08-07T20:16:03.762Z,55.25
2022-08-07T20:18:35.384Z,53.28
2022-08-07T20:21:21.235Z,53.13
2022-08-07T20:23:54.237Z,53.69
2022-08-07T20:26:38.766Z,54.13
2022-08-07T20:29:47.296Z,55.52
2022-08-07T20:32:11.609Z,55.38
2022-08-07T20:34:52.286Z,55.49
2022-08-07T20:37:29.720Z,56.61
2022-08-07T20:40:30.756Z,57.19
2022-08-07T20:42:57.476Z,56.88
2022-08-07T20:45:33.371Z,57.37
2022-08-07T20:48:25.918Z,56.65
2022-08-07T20:50:58.132Z,56.91
2022-08-07T20:54:03.570Z,57.16
2022-08-07T20:56:25.798Z,56.76
2022-08-07T20:58:58.537Z,56.91
2022-08-07T21:01:45.207Z,55.97
2022-08-07T21:04:23.938Z,56.91
2022-08-07T21:06:56.832Z,57.24
2022-08-07T21:09:35.590Z,58.00
2022-08-07T21:12:28.632Z,57.65
2022-08-07T21:15:00.822Z,57.53
2022-08-07T21:18:06.024Z,55.88
2022-08-07T21:20:33.233Z,55.14
2022-08-07T21:23:08.019Z,58.01
2022-08-07T21:25:52.252Z,60.04
2022-08-07T21:28:48.196Z,60.71
2022-08-07T21:31:50.007Z,59.55
2022-08-07T21:34:26.489Z,56.71
2022-08-07T21:37:08.448Z,59.50
2022-08-07T21:39:54.792Z,59.45
2022-08-07T21:42:49.368Z,60.37
2022-08-07T21:46:09.455Z,61.70
2022-08-07T21:48:27.864Z,60.87
2022-08-07T21:51:19.961Z,61.60
2022-08-07T21:54:05.009Z,60.18
2022-08-07T21:56:47.996Z,61.20
2022-08-07T22:00:03.004Z,61.98
2022-08-07T22:02:29.917Z,62.33
2022-08-07T22:05:03.042Z,62.43
2022-08-07T22:07:58.077Z,63.07
2022-08-07T22:10:32.916Z,62.59
2022-08-07T22:13:09.022Z,61.59
2022-08-07T22:16:44.596Z,60.89
2022-08-07T22:18:41.765Z,61.65
2022-08-07T22:21:20.338Z,62.76
2022-08-07T22:23:55.454Z,63.65
2022-08-07T22:26:31.968Z,59.82
2022-08-07T22:29:14.009Z,61.16
2022-08-07T22:31:59.955Z,61.82
2022-08-07T22:35:02.198Z,61.16
2022-08-07T22:38:02.880Z,62.83
2022-08-07T22:40:43.596Z,63.96
2022-08-07T22:43:31.516Z,64.31
2022-08-07T22:47:02.894Z,63.95
2022-08-07T22:49:54.589Z,61.88
2022-08-07T22:53:00.484Z,63.50
2022-08-07T22:55:39.891Z,64.61
2022-08-07T22:58:33.418Z,65.02
2022-08-07T23:01:19.312Z,65.28
2022-08-07T23:03:58.324Z,63.81
2022-08-07T23:06:58.523Z,64.18
2022-08-07T23:10:05.006Z,63.71
2022-08-07T23:12:56.598Z,63.44
2022-08-07T23:16:06.726Z,64.71
2022-08-07T23:18:42.109Z,64.53
2022-08-07T23:21:30.473Z,66.11
2022-08-07T23:24:24.103Z,65.86
2022-08-07T23:27:33.578Z,66.62
2022-08-07T23:30:38.932Z,67.54
2022-08-07T23:34:35.391Z,67.18
2022-08-07T23:36:17.086Z,67.24
2022-08-07T23:39:08.545Z,66.94
2022-08-07T23:42:04.672Z,66.86
2022-08-07T23:44:52.064Z,66.60
2022-08-07T23:47:46.573Z,66.45
2022-08-07T23:50:40.498Z,65.42
2022-08-07T23:53:49.588Z,65.01
2022-08-07T23:56:21.717Z,65.16
2022-08-07T23:59:00.366Z,66.35
